Sweeney Granite Mountains, California Weather observations

Data are for 10 minute period ending at time listed.
 Day   Time   Solar   Ave.   Ave.  Ave.  Vector  Max.   Baro.   Total    
  of    of     Rad.   Air    Rel.  Wind   Wind   Wind  Press.  Precip.   
Year   Day            Temp.  Hum.  Speed  Dir.   Gust                    
2015   (PST)  Kw/m2    F      %     mph   deg.    mph    mb.     in.     
-------------------------------------------------------------------------
  90    7:10   0.29   72.4    16    0.9   244     2.3   869.5    0.00 
  90    7:20   0.31   74.0    15    1.1   178     2.8   869.6    0.00 
  90    7:30   0.35   74.0    15    1.5   185     2.8   869.7    0.00 
  90    7:40   0.37   74.6    15    1.2   167     3.7   869.8    0.00 
  90    7:50   0.39   74.0    15    2.4   114     5.6   869.9    0.00 
  90    8:00   0.42   72.7    15    3.6   120     7.2   869.9    0.00 
  90    8:10   0.37   72.7    15    2.2   113     6.4   870.0    0.00 
  90    8:20   0.52   73.9    15    3.3   118     8.8   870.2    0.00 
  90    8:30   0.50   72.6    15    4.5   108     7.5   870.2    0.00 
  90    8:40   0.55   73.9    14    1.7   199     6.6   870.4    0.00 
  90    8:50   0.63   73.5    14    5.4   104    10.0   870.4    0.00 
  90    9:00   0.68   74.2    14    3.4   112     8.5   870.4    0.00 
  90    9:10   0.69   74.0    14    4.5   154    10.0   870.5    0.00 
  90    9:20   0.70   74.2    14    4.4   220    10.4   870.6    0.00 
  90    9:30   0.72   74.8    13    2.7   217     6.7   870.7    0.00 
  90    9:40   0.72   74.3    12    5.4   205    11.8   870.7    0.00 
  90    9:50   0.81   74.7    12    2.6   192     7.5   870.7    0.00 
  90   10:00   0.74   74.5    12    3.9   197    10.4   870.7    0.00 
  90   10:10   0.71   74.6    13    4.1   226     9.5   870.7    0.00 
  90   10:20   0.82   74.4    13    5.8   216    14.3   870.7    0.00 
  90   10:30   0.91   75.0    12    4.8   215    12.9   870.6    0.00 
  90   10:40   0.83   75.1    12    6.5   221    17.6   870.5    0.00 
  90   10:50   0.78   73.9    13    7.4   216    13.4   870.5    0.00 
  90   11:00   0.66   74.5    13    4.0   202    11.3   870.5    0.00 
  90   11:10   0.76   75.2    13    5.6   213    12.7   870.4    0.00 
  90   11:20   0.94   74.9    13    4.9   220    12.2   870.3    0.00 
  90   11:30   1.00   75.5    13    6.2   214    15.9   870.3    0.00 
  90   11:40   1.00   75.4    13    7.4   226    18.3   870.2    0.00 
  90   11:50   0.98   76.2    12    6.4   241    13.2   870.2    0.00 
  90   12:00   1.01   75.6    12    7.3   236    20.1   870.0    0.00 
  90   12:10   0.96   76.9    12    6.7   263    12.6   870.0    0.00 
  90   12:20   0.83   76.5    12    7.2   254    14.4   869.9    0.00 
  90   12:30   0.97   76.5    12    7.2   231    18.3   869.8    0.00 
  90   12:40   0.55   75.1    13    5.2   224    15.0   869.7    0.00 
  90   12:50   1.02   75.7    12    6.9   217    17.5   869.6    0.00 
  90   13:00   0.95   76.2    12    6.4   250    15.5   869.5    0.00 
  90   13:10   0.93   76.4    12    8.5   232    21.3   869.3    0.00 
  90   13:20   0.90   75.6    12    5.5   220    14.8   869.1    0.00 
  90   13:30   0.88   76.0    11    7.7   228    17.8   868.9    0.00 
  90   13:40   0.82   76.0    11    7.0   210    17.5   868.7    0.00 
  90   13:50   0.80   77.4    11    6.3   214    13.5   868.6    0.00 
  90   14:00   0.79   76.8    10    8.1   252    19.9   868.4    0.00 
  90   14:10   0.71   76.3    10    9.4   241    21.3   868.3    0.00 
  90   14:20   0.68   76.4    10    6.1   259    14.3   868.2    0.00 
  90   14:30   0.66   76.1    10    7.9   238    18.5   868.0    0.00 
  90   14:40   0.70   77.3    10    6.8   245    21.7   867.9    0.00 
  90   14:50   0.64   76.6     9    6.8   219    18.1   867.8    0.00 
  90   15:00   0.60   76.8     9    6.8   258    15.9   867.7    0.00 
  90   15:10   0.55   76.5     9    8.9   232    19.0   867.6    0.00 
  90   15:20   0.59   76.3     8    6.1   206    15.7   867.6    0.00 
  90   15:30   0.55   76.3     8    9.0   226    17.7   867.6    0.00 
  90   15:40   0.54   77.4     8    5.5   242    12.1   867.5    0.00 
  90   15:50   0.49   77.9     8    5.0   240     9.1   867.4    0.00 
  90   16:00   0.46   77.5     8    8.6   279    16.1   867.3    0.00 
  90   16:10   0.42   77.4     8    5.9   269    14.9   867.2    0.00 
  90   16:20   0.37   77.0     8    6.2   254    11.4   867.2    0.00 
  90   16:30   0.22   76.5     7    4.9   234    15.5   867.1    0.00 
  90   16:40   0.15   75.3     7    6.7   272    14.8   867.0    0.00 
  90   16:50   0.15   74.9     8    4.3   245    10.7   867.0    0.00 
  90   17:00   0.26   76.3     8    3.7   232     9.9   866.9    0.00 
  90   17:10   0.20   76.5     7    3.0   291    11.2   866.8    0.00 
  90   17:20   0.06   74.0    10   11.4   274    21.9   866.7    0.00 
  90   17:30   0.03   72.0    14   12.9   274    21.2   866.6    0.00 
  90   17:40   0.02   70.7    15   15.8   284    23.2   866.5    0.00 
  90   17:50   0.01   69.8    16   17.9   287    25.1   866.5    0.00 
  90   18:00   0.01   69.1    16   18.5   290    26.9   866.3    0.00 
  90   18:10   0.00   68.3    17   19.1   292    25.7   866.2    0.00 
  90   18:20   0.00   67.5    17   20.6   294    28.4   866.2    0.00 
  90   18:30   0.00   67.1    17   20.8   293    32.7   866.2    0.00 
  90   18:40   0.00   66.8    17   19.5   294    27.8   866.1    0.00 
  90   18:50   0.00   66.5    17   20.6   297    29.1   866.1    0.00 
  90   19:00   0.00   66.2    17   19.3   298    25.5   866.0    0.00 
  90   19:10   0.00   66.1    18   19.3   299    28.4   866.0    0.00 
  90   19:20   0.00   66.4    19   18.6   290    31.0   865.9    0.00 
  90   19:30   0.00   66.7    18   17.8   287    29.5   865.9    0.00 
  90   19:40   0.00   66.9    14   18.1   283    26.1   865.9    0.00 
  90   19:50   0.00   66.3    14   21.1   287    33.6   865.9    0.00 
  90   20:00   0.00   66.0    16   20.4   288    28.7   865.9    0.00 
  90   20:10   0.00   65.4    17   19.5   289    26.3   865.9    0.00 
  90   20:20   0.00   65.5    15   21.0   291    29.2   865.9    0.00 
  90   20:30   0.00   64.7    18   19.9   298    27.8   866.0    0.00 
  90   20:40   0.00   64.3    19   21.4   302    28.9   866.0    0.00 
  90   20:50   0.00   64.3    18   22.2   304    29.9   866.0    0.00 
  90   21:00   0.00   64.3    17   23.7   306    31.8   865.9    0.00 
  90   21:10   0.00   64.3    15   25.2   306    34.3   865.9    0.00 
  90   21:20   0.00   63.8    17   26.5   308    36.2   866.0    0.00 
  90   21:30   0.00   63.1    18   25.8   306    38.0   866.0    0.00 
  90   21:40   0.00   62.8    19   25.5   312    36.0   866.0    0.00 
  90   21:50   0.00   62.2    19   25.9   308    40.3   866.1    0.00 
  90   22:00   0.00   61.9    18   25.3   305    37.6   866.1    0.00 
  90   22:10   0.00   61.7    17   21.6   304    37.3   866.3    0.00 
  90   22:20   0.00   61.7    16   22.7   312    34.4   866.4    0.00 
  90   22:30   0.00   60.7    17   22.5   306    35.3   866.3    0.00 
  90   22:40   0.00   60.4    16   20.9   306    31.0   866.4    0.00 
  90   22:50   0.00   60.2    14   20.7   301    30.2   866.3    0.00 
  90   23:00   0.00   60.6    12   21.7   304    31.0   866.1    0.00 
  90   23:10   0.00   60.5    12   21.1   298    34.3   866.1    0.00 
  90   23:20   0.00   60.5    12   16.1   303    23.7   866.2    0.00 
  90   23:30   0.00   60.6    12   10.7   295    19.0   866.3    0.00 
  90   23:40   0.00   59.9    13   12.4   286    21.7   866.2    0.00 
  90   23:50   0.00   59.1    12   17.0   290    26.8   865.8    0.00 
  91    0:00   0.00   59.4    12   17.5   295    29.7   865.6    0.00 
  91    0:10   0.00   59.4    13   14.8   300    26.5   865.9    0.00 
  91    0:20   0.00   58.7    14   12.0   310    23.3   865.9    0.00 
  91    0:30   0.00   58.4    13   15.8   302    23.1   865.5    0.00 
  91    0:40   0.00   58.4    14   17.1   300    27.6   865.7    0.00 
  91    0:50   0.00   57.1    16   18.2   297    30.0   865.7    0.00 
  91    1:00   0.00   57.2    16   17.4   288    25.9   865.9    0.00 
  91    1:10   0.00   56.8    17   14.8   285    27.5   865.9    0.00 
  91    1:20   0.00   56.8    17   14.2   301    22.8   865.8    0.00 
  91    1:30   0.00   57.1    17   15.3   307    25.8   865.7    0.00 
  91    1:40   0.00   57.1    18   17.0   310    29.6   865.5    0.00 
  91    1:50   0.00   57.3    19   19.5   310    30.8   865.3    0.00 
  91    2:00   0.00   56.9    19   16.2   302    29.8   865.3    0.00 
  91    2:10   0.00   56.9    19    7.9   304    21.0   865.2    0.00 
  91    2:20   0.00   56.0    19    4.5   224    13.3   865.2    0.00 
  91    2:30   0.00   55.5    20    6.6   340    12.9   865.2    0.00 
  91    2:40   0.00   56.3    21   11.9    16    24.9   865.2    0.00 
  91    2:50   0.00   56.0    22   16.0   332    24.0   865.2    0.00 
  91    3:00   0.00   55.9    22   14.0   344    22.2   865.4    0.00 
  91    3:10   0.00   55.2    23   18.7   320    29.8   865.4    0.00 
  91    3:20   0.00   54.9    24   19.7   327    32.3   865.5    0.00 
  91    3:30   0.00   54.5    25   19.3   319    30.1   865.4    0.00 
  91    3:40   0.00   54.2    26   19.8   324    28.1   865.6    0.00 
  91    3:50   0.00   53.8    26   19.5   320    28.9   865.6    0.00 
  91    4:00   0.00   53.4    28   17.6   324    26.3   865.9    0.00 
  91    4:10   0.00   52.8    29   16.0   332    22.2   865.8    0.00 
  91    4:20   0.00   53.3    28   15.8   330    22.0   865.8    0.00 
  91    4:30   0.00   53.3    28   13.7   335    21.1   865.9    0.00 
  91    4:40   0.00   53.2    28   17.3   334    26.9   866.1    0.00 
  91    4:50   0.00   53.0    29   15.9   335    22.3   866.2    0.00 
  91    5:00   0.00   53.5    28   17.0   325    22.2   866.3    0.00 
  91    5:10   0.00   53.5    28   20.6   319    27.2   866.4    0.00 
  91    5:20   0.00   52.9    29   19.8   319    26.2   866.3    0.00 
  91    5:30   0.00   53.5    28   20.2   313    25.1   866.3    0.00 
  91    5:40   0.00   54.2    27   20.8   308    28.2   866.3    0.00 
  91    5:50   0.01   55.8    25   20.6   311    30.5   866.5    0.00 
  91    6:00   0.01   56.4    25   17.7   314    31.6   866.6    0.00 
  91    6:10   0.04   57.2    24   16.9   315    29.0   866.7    0.00 
  91    6:20   0.09   57.4    24   17.2   309    28.7   866.9    0.00 
  91    6:30   0.12   57.7    24   18.6   315    26.8   866.9    0.00 
  91    6:40   0.16   57.8    24   17.3   312    25.6   867.1    0.00 
  91    6:50   0.20   57.8    24   17.2   318    25.3   867.1    0.00 
  91    7:00   0.23   57.9    24   17.8   314    25.9   867.0    0.00 

Return to Sweeney Granite Mountains graphs page.


Western Regional Climate Center,wrcc@dri.edu